Time;durP1;ratioP1;P1;durP2;ratioP2;P2;SDS_P1;SDS_P2;PMS_P1;PMS_P2;Temp;Humidity;BMP_temperature;BMP_pressure;BME280_temperature;BME280_humidity;BME280_pressure;Samples;Min_cycle;Max_cycle;Signal;HPM_P1;HPM_P2
2022/11/23 00:01:23;;;;;;;24.47;17.23;;;;;;;2.26;100.00;94973.09;5032537;28;20874;-73
2022/11/23 00:03:51;;;;;;;25.90;16.40;;;;;;;2.17;100.00;94960.06;5016312;28;20434;-73
2022/11/23 00:06:20;;;;;;;29.10;18.37;;;;;;;2.10;100.00;94951.91;5032204;28;20540;-73
2022/11/23 00:08:47;;;;;;;23.20;16.20;;;;;;;1.83;100.00;94918.31;5033957;28;21021;-73
2022/11/23 00:11:14;;;;;;;22.07;17.13;;;;;;;2.11;100.00;94958.66;5035614;28;20461;-73
2022/11/23 00:13:41;;;;;;;29.30;19.77;;;;;;;2.05;100.00;94952.84;5052108;28;20945;-73
2022/11/23 00:16:12;;;;;;;40.10;22.53;;;;;;;2.18;100.00;94977.25;5053420;28;20881;-73
2022/11/23 00:18:38;;;;;;;31.03;20.37;;;;;;;1.96;100.00;94944.25;5042186;28;20497;-73
2022/11/23 00:21:07;;;;;;;31.10;20.10;;;;;;;2.15;100.00;94980.47;5035990;28;20448;-73
2022/11/23 00:23:34;;;;;;;27.20;20.20;;;;;;;1.84;100.00;94923.22;5051487;28;20441;-73
2022/11/23 00:26:01;;;;;;;33.83;19.57;;;;;;;2.06;100.00;94949.16;5051388;28;20577;-73
2022/11/23 00:28:27;;;;;;;40.83;23.17;;;;;;;1.97;100.00;94937.19;5024148;28;20489;-73
2022/11/23 00:30:54;;;;;;;38.93;23.57;;;;;;;2.22;100.00;94975.53;5031512;28;20548;-73
2022/11/23 00:33:21;;;;;;;33.00;20.23;;;;;;;2.17;100.00;94970.50;5031576;28;20482;-73
2022/11/23 00:36:01;;;;;;;26.13;17.50;;;;;;;2.22;100.00;94977.38;5044847;28;20460;-73
2022/11/23 00:38:29;;;;;;;25.37;16.63;;;;;;;2.00;100.00;94952.22;5031463;28;20507;-73
2022/11/23 00:41:01;;;;;;;27.40;19.57;;;;;;;2.01;100.00;94945.94;5009427;28;20452;-73
2022/11/23 00:43:28;;;;;;;27.30;15.87;;;;;;;2.22;100.00;94974.78;5034714;28;20437;-73
2022/11/23 00:46:15;;;;;;;26.67;17.80;;;;;;;2.21;100.00;94974.00;5035126;28;20437;-73
2022/11/23 00:48:43;;;;;;;23.93;17.90;;;;;;;2.16;100.00;94971.56;5051233;28;20500;-73
2022/11/23 00:51:14;;;;;;;28.07;18.97;;;;;;;2.08;100.00;94960.06;5034659;28;20441;-73
2022/11/23 00:53:42;;;;;;;25.47;18.07;;;;;;;2.14;100.00;94959.88;5051170;28;20958;-73
2022/11/23 00:56:10;;;;;;;23.50;16.63;;;;;;;2.09;100.00;94960.81;5035082;28;20502;-73
2022/11/23 00:58:38;;;;;;;26.70;17.60;;;;;;;2.03;100.00;94943.81;5050917;28;20484;-73
2022/11/23 01:01:09;;;;;;;22.40;17.03;;;;;;;2.23;100.00;94974.47;5052634;28;20437;-73
2022/11/23 01:03:41;;;;;;;35.73;21.30;;;;;;;1.93;100.00;94931.84;5034591;28;20926;-73
2022/11/23 01:06:10;;;;;;;31.00;17.40;;;;;;;1.76;100.00;94918.78;5051000;28;20507;-73
2022/11/23 01:08:38;;;;;;;30.97;19.90;;;;;;;2.04;100.00;94953.16;5034216;28;20553;-73
2022/11/23 01:11:07;;;;;;;27.50;18.57;;;;;;;2.15;100.00;94977.09;5052554;28;20425;-73
2022/11/23 01:13:38;;;;;;;27.67;17.93;;;;;;;2.16;100.00;94968.19;5051166;28;20965;-73
2022/11/23 01:16:22;;;;;;;37.90;22.40;;;;;;;2.23;100.00;94976.31;5050838;28;20425;-73
2022/11/23 01:18:53;;;;;;;33.70;20.23;;;;;;;2.22;100.00;94980.00;5040048;28;20478;-73
2022/11/23 01:21:22;;;;;;;27.57;17.47;;;;;;;1.96;100.00;94941.63;5029830;28;20490;-73
2022/11/23 01:23:49;;;;;;;23.50;17.77;;;;;;;2.23;100.00;94973.69;5031052;28;20918;-73
2022/11/23 01:26:15;;;;;;;25.27;16.87;;;;;;;2.25;100.00;94981.97;5017717;28;20450;-73
2022/11/23 01:28:42;;;;;;;20.20;15.93;;;;;;;2.13;100.00;94960.97;5030889;28;20465;-73
2022/11/23 01:31:14;;;;;;;26.30;16.63;;;;;;;2.17;100.00;94988.75;5030590;28;20880;-73
2022/11/23 01:33:43;;;;;;;21.83;16.20;;;;;;;2.06;100.00;94984.88;5027988;28;20920;-73
2022/11/23 01:36:10;;;;;;;26.30;18.07;;;;;;;2.07;100.00;94983.81;5043010;28;21021;-73
2022/11/23 01:38:37;;;;;;;26.87;19.30;;;;;;;1.63;100.00;94923.06;5030278;28;20573;-73
2022/11/23 01:41:05;;;;;;;26.23;17.87;;;;;;;2.16;100.00;94981.22;5030517;28;20934;-73
2022/11/23 01:43:32;;;;;;;30.17;17.47;;;;;;;2.16;100.00;94992.41;5031561;28;20433;-73
2022/11/23 01:46:00;;;;;;;27.27;17.00;;;;;;;2.20;100.00;94995.19;5030694;28;20972;-73
2022/11/23 01:48:45;;;;;;;27.00;17.20;;;;;;;2.31;100.00;94999.03;5015071;28;20557;-73
2022/11/23 01:51:17;;;;;;;21.50;15.13;;;;;;;2.34;100.00;94996.56;5051383;28;20468;-73
2022/11/23 01:53:46;;;;;;;25.30;16.10;;;;;;;2.24;100.00;95006.53;5033648;28;20948;-73
2022/11/23 01:56:18;;;;;;;20.83;15.83;;;;;;;2.17;100.00;94987.97;5050237;28;20762;-73
2022/11/23 01:58:49;;;;;;;25.00;16.70;;;;;;;2.23;100.00;95003.16;5049730;28;20561;-73
2022/11/23 02:01:16;;;;;;;27.37;17.30;;;;;;;2.11;100.00;94999.59;5051392;28;20417;-73
2022/11/23 02:03:46;;;;;;;28.47;18.73;;;;;;;2.01;100.00;94996.25;5049721;28;20445;-73
2022/11/23 02:06:15;;;;;;;32.27;21.10;;;;;;;2.02;100.00;95000.38;5051034;28;20429;-73
2022/11/23 02:08:43;;;;;;;37.80;20.73;;;;;;;2.04;100.00;95000.84;5050207;28;20464;-73
2022/11/23 02:11:12;;;;;;;28.00;20.53;;;;;;;2.07;100.00;95002.06;5033763;28;20900;-73
2022/11/23 02:13:41;;;;;;;26.33;20.10;;;;;;;2.08;100.00;95012.19;5034227;28;20437;-73
2022/11/23 02:16:08;;;;;;;24.83;17.13;;;;;;;1.98;100.00;94986.41;5051168;28;20460;-73
2022/11/23 02:18:38;;;;;;;26.00;16.70;;;;;;;2.05;100.00;94991.94;5049850;28;20472;-73
2022/11/23 02:21:05;;;;;;;20.00;14.97;;;;;;;1.99;100.00;94980.13;5033745;28;20957;-73
2022/11/23 02:24:02;;;;;;;21.23;15.50;;;;;;;2.19;100.00;95017.88;5050130;28;20484;-73
2022/11/23 02:26:34;;;;;;;24.77;16.07;;;;;;;1.99;100.00;94980.13;5049035;28;20439;-73
2022/11/23 02:29:09;;;;;;;24.90;16.40;;;;;;;2.17;100.00;95012.19;5018228;28;20795;-73
2022/11/23 02:31:35;;;;;;;21.87;14.83;;;;;;;2.10;100.00;95009.25;5013968;28;20993;-73
2022/11/23 02:34:02;;;;;;;30.60;16.17;;;;;;;2.13;100.00;94995.63;5046487;28;20793;-73
2022/11/23 02:36:29;;;;;;;20.47;15.23;;;;;;;2.14;100.00;95015.44;5053897;28;20474;-73
2022/11/23 02:39:00;;;;;;;20.80;15.80;;;;;;;2.07;100.00;95009.88;5031399;28;20465;-72
2022/11/23 02:41:32;;;;;;;24.20;17.27;;;;;;;2.06;100.00;95003.13;5029944;28;20446;-73
2022/11/23 02:44:02;;;;;;;20.10;16.00;;;;;;;2.08;100.00;94987.97;5029879;28;20442;-73
2022/11/23 02:46:29;;;;;;;27.27;18.23;;;;;;;2.16;100.00;95017.72;5029894;28;20428;-73
2022/11/23 02:48:55;;;;;;;31.30;19.10;;;;;;;1.94;100.00;94982.88;5031754;28;21016;-73
2022/11/23 02:51:22;;;;;;;22.30;15.43;;;;;;;2.05;100.00;95010.19;5035077;28;20469;-73
2022/11/23 02:53:49;;;;;;;25.40;17.30;;;;;;;1.99;100.00;95014.00;5031198;28;20438;-73
2022/11/23 02:56:15;;;;;;;28.40;18.17;;;;;;;2.04;100.00;95020.91;5030016;28;20434;-73
2022/11/23 02:58:42;;;;;;;32.60;19.87;;;;;;;1.91;100.00;94996.50;5030736;28;20505;-73
2022/11/23 03:01:09;;;;;;;21.00;16.27;;;;;;;2.15;100.00;95006.53;5029789;28;20533;-73
2022/11/23 03:03:36;;;;;;;24.37;17.90;;;;;;;1.96;100.00;94988.53;5029712;28;21006;-73
2022/11/23 03:06:03;;;;;;;24.07;17.90;;;;;;;2.14;100.00;95027.66;5030920;28;20525;-73
2022/11/23 03:08:31;;;;;;;20.97;16.07;;;;;;;2.00;100.00;95012.16;5029584;28;20439;-73
2022/11/23 03:11:00;;;;;;;23.57;16.13;;;;;;;1.99;100.00;95011.38;5029234;28;20446;-73
2022/11/23 03:13:28;;;;;;;25.53;18.33;;;;;;;2.16;100.00;95035.97;5029463;28;20961;-73
2022/11/23 03:15:56;;;;;;;31.60;21.00;;;;;;;2.00;100.00;94993.91;5029350;28;21267;-73
2022/11/23 03:18:25;;;;;;;24.57;16.60;;;;;;;2.19;100.00;95035.34;5030767;28;20985;-73
2022/11/23 03:20:52;;;;;;;21.33;15.57;;;;;;;2.13;100.00;95016.47;5029040;28;20465;-73
2022/11/23 03:23:19;;;;;;;21.37;15.80;;;;;;;2.36;100.00;95035.38;5013505;28;20485;-73
2022/11/23 03:25:54;;;;;;;22.03;14.27;;;;;;;2.37;100.00;95052.56;5029343;28;20438;-73
2022/11/23 03:28:23;;;;;;;22.03;15.13;;;;;;;2.16;100.00;95030.75;5019274;28;20528;-73
2022/11/23 03:30:49;;;;;;;19.00;14.37;;;;;;;2.06;100.00;95026.59;5026116;28;20799;-73
2022/11/23 03:33:17;;;;;;;17.40;14.80;;;;;;;2.31;100.00;95049.34;5039492;28;20444;-73
2022/11/23 03:35:46;;;;;;;18.80;13.53;;;;;;;2.25;100.00;95053.16;5045118;28;20486;-73
2022/11/23 03:38:19;;;;;;;22.20;16.17;;;;;;;2.10;100.00;95040.53;5013855;28;20458;-73
2022/11/23 03:40:46;;;;;;;33.80;20.50;;;;;;;1.95;100.00;95028.72;5029338;28;20864;-73
2022/11/23 03:43:39;;;;;;;23.97;17.30;;;;;;;1.96;100.00;95025.03;5011728;28;20447;-73
2022/11/23 03:46:06;;;;;;;25.63;18.00;;;;;;;2.20;100.00;95039.50;5031756;28;20521;-73
2022/11/23 03:48:33;;;;;;;23.23;16.23;;;;;;;2.22;100.00;95027.69;5032482;28;20455;-73
2022/11/23 03:50:59;;;;;;;18.47;14.57;;;;;;;2.21;100.00;95028.75;5016100;28;20434;-73
2022/11/23 03:53:26;;;;;;;21.00;16.73;;;;;;;2.02;100.00;95004.81;5032249;28;20434;-73
2022/11/23 03:55:55;;;;;;;19.57;14.90;;;;;;;1.97;100.00;94995.28;5032197;28;20942;-73
2022/11/23 03:58:23;;;;;;;23.10;16.17;;;;;;;2.03;100.00;95008.97;5015815;28;20461;-73
2022/11/23 04:00:50;;;;;;;23.50;15.70;;;;;;;2.10;100.00;95018.94;5032245;28;20485;-73
2022/11/23 04:03:16;;;;;;;29.47;16.90;;;;;;;2.09;100.00;95031.19;5015946;28;20435;-73
2022/11/23 04:06:02;;;;;;;23.07;15.93;;;;;;;2.01;100.00;95008.50;5031933;28;20442;-73
2022/11/23 04:08:54;;;;;;;23.83;16.60;;;;;;;2.24;100.00;95025.53;5032371;28;20908;-73
2022/11/23 04:11:43;;;;;;;20.73;14.90;;;;;;;2.21;100.00;95022.78;5018593;28;20470;-73
2022/11/23 04:14:10;;;;;;;19.73;16.80;;;;;;;2.19;100.00;95028.31;5031984;28;20434;-73
2022/11/23 04:16:37;;;;;;;21.83;15.67;;;;;;;2.01;100.00;95011.09;5031980;28;20529;-73
2022/11/23 04:19:03;;;;;;;23.07;16.40;;;;;;;1.99;100.00;95003.56;5031616;28;20472;-73
2022/11/23 04:21:30;;;;;;;18.37;14.60;;;;;;;2.07;100.00;95013.25;5031520;28;20454;-73
2022/11/23 04:23:57;;;;;;;21.20;15.87;;;;;;;2.18;100.00;95031.97;5031630;28;20454;-73
2022/11/23 04:26:24;;;;;;;22.17;15.10;;;;;;;1.92;100.00;94997.28;5031554;28;20446;-73
2022/11/23 04:28:51;;;;;;;25.70;15.60;;;;;;;2.03;100.00;94995.94;5031354;28;20454;-73
2022/11/23 04:31:17;;;;;;;24.57;16.40;;;;;;;2.15;100.00;95024.78;5031584;28;20430;-73
2022/11/23 04:34:04;;;;;;;19.57;14.90;;;;;;;1.97;100.00;94997.13;5045550;28;20446;-73
2022/11/23 04:36:31;;;;;;;23.07;15.30;;;;;;;1.91;100.00;94995.75;5040093;28;20926;-73
2022/11/23 04:38:59;;;;;;;25.77;15.87;;;;;;;1.88;100.00;94989.31;5015029;28;20477;-73
2022/11/23 04:41:34;;;;;;;23.37;15.83;;;;;;;1.87;100.00;94986.97;5016379;28;20855;-73
2022/11/23 04:44:02;;;;;;;23.57;16.20;;;;;;;1.99;100.00;94993.16;5015307;28;20442;-73
2022/11/23 04:46:29;;;;;;;22.43;15.80;;;;;;;2.13;100.00;95008.66;5015212;28;20960;-73
2022/11/23 04:48:58;;;;;;;21.27;15.00;;;;;;;2.07;100.00;94986.41;5015099;28;20516;-73
2022/11/23 04:51:25;;;;;;;25.30;15.23;;;;;;;2.31;100.00;95022.50;5031459;28;20449;-73
2022/11/23 04:53:53;;;;;;;23.00;14.93;;;;;;;2.09;100.00;94992.09;5031097;28;20447;-73
2022/11/23 04:56:20;;;;;;;22.73;15.23;;;;;;;2.16;100.00;95015.13;5031011;28;20494;-73
2022/11/23 04:58:47;;;;;;;18.50;13.50;;;;;;;2.07;100.00;94997.63;5031347;28;20474;-73
2022/11/23 05:01:13;;;;;;;23.47;15.57;;;;;;;2.05;100.00;95001.59;5031142;28;20484;-73
2022/11/23 05:04:00;;;;;;;18.30;13.13;;;;;;;2.04;100.00;94979.97;5032319;28;20434;-73
2022/11/23 05:06:27;;;;;;;19.03;12.40;;;;;;;1.83;100.00;94960.00;5016972;28;20434;-73
2022/11/23 05:08:53;;;;;;;24.23;15.07;;;;;;;2.07;100.00;95004.66;5034306;28;20977;-73
2022/11/23 05:11:47;;;;;;;19.27;13.90;;;;;;;2.14;100.00;95027.66;5048918;28;20480;-73
2022/11/23 05:14:14;;;;;;;18.67;13.47;;;;;;;2.17;100.00;95032.28;5034583;28;20447;-73
2022/11/23 05:16:40;;;;;;;23.30;15.03;;;;;;;2.18;100.00;95033.81;5050880;28;20560;-73
2022/11/23 05:19:07;;;;;;;21.47;14.60;;;;;;;2.21;100.00;95023.53;5034355;28;20522;-73
2022/11/23 05:21:34;;;;;;;22.60;15.43;;;;;;;2.01;100.00;95005.91;5034368;28;20506;-73
2022/11/23 05:24:01;;;;;;;22.17;14.00;;;;;;;1.92;100.00;94994.69;5050577;28;20434;-73
2022/11/23 05:26:28;;;;;;;22.07;14.90;;;;;;;2.13;100.00;95016.47;5034179;28;20441;-73
2022/11/23 05:28:55;;;;;;;26.47;17.17;;;;;;;2.10;100.00;95009.25;5020752;28;20489;-73
2022/11/23 05:31:21;;;;;;;23.77;15.20;;;;;;;2.07;100.00;94983.81;5063272;28;20473;-73
2022/11/23 05:33:50;;;;;;;21.73;15.07;;;;;;;2.01;100.00;94977.22;5052105;28;20528;-73
2022/11/23 05:36:24;;;;;;;22.50;15.47;;;;;;;2.12;100.00;95001.91;5041014;28;20950;-73
2022/11/23 05:38:51;;;;;;;20.00;14.20;;;;;;;2.18;100.00;95020.78;5030214;28;20557;-73
2022/11/23 05:41:24;;;;;;;16.70;14.13;;;;;;;1.94;100.00;94995.13;5014841;28;20538;-73
2022/11/23 05:43:55;;;;;;;20.23;15.00;;;;;;;2.12;100.00;95025.38;5030176;28;20901;-73
2022/11/23 05:46:25;;;;;;;22.13;15.73;;;;;;;2.01;100.00;95004.06;5030034;28;20934;-73
2022/11/23 05:48:53;;;;;;;28.63;17.50;;;;;;;2.14;100.00;95025.06;5029912;28;20469;-73
2022/11/23 05:51:19;;;;;;;22.37;15.10;;;;;;;2.28;100.00;95036.91;5030241;28;20964;-73
2022/11/23 05:53:48;;;;;;;23.77;15.60;;;;;;;2.33;100.00;95044.59;5035600;28;20476;-73
2022/11/23 05:56:21;;;;;;;26.87;16.63;;;;;;;1.98;100.00;95006.47;5050448;28;20453;-73
2022/11/23 05:58:59;;;;;;;20.40;15.07;;;;;;;2.16;100.00;95025.53;5050099;28;20476;-73
2022/11/23 06:01:26;;;;;;;24.00;17.00;;;;;;;2.19;100.00;95041.34;5049844;28;20491;-73
2022/11/23 06:03:57;;;;;;;26.23;16.50;;;;;;;2.18;100.00;95039.03;5021069;28;20443;-73
2022/11/23 06:06:24;;;;;;;27.50;16.27;;;;;;;2.11;100.00;95039.47;5025605;28;20500;-73
2022/11/23 06:08:51;;;;;;;32.50;17.13;;;;;;;2.13;100.00;95029.50;5029487;28;20509;-74
2022/11/23 06:11:18;;;;;;;28.13;17.27;;;;;;;2.02;100.00;95010.81;5043435;28;20449;-73
2022/11/23 06:13:46;;;;;;;27.13;16.83;;;;;;;2.21;100.00;95035.81;5031755;28;20438;-73
2022/11/23 06:16:15;;;;;;;27.07;17.90;;;;;;;1.95;100.00;95004.47;5031246;28;20500;-73
2022/11/23 06:18:53;;;;;;;34.37;20.67;;;;;;;2.11;100.00;95036.09;5029565;28;20520;-73
2022/11/23 06:21:20;;;;;;;28.17;17.77;;;;;;;2.21;100.00;95044.41;5030148;28;20445;-73
2022/11/23 06:23:48;;;;;;;32.13;19.07;;;;;;;2.15;100.00;95050.06;5042003;28;20441;-73
2022/11/23 06:26:15;;;;;;;31.23;20.10;;;;;;;1.88;100.00;95022.41;5050070;28;21016;-73
2022/11/23 06:28:42;;;;;;;26.07;16.10;;;;;;;1.76;100.00;94991.72;5037154;28;20560;-73
2022/11/23 06:31:09;;;;;;;30.53;18.83;;;;;;;2.08;100.00;95045.28;5031472;28;20895;-73
2022/11/23 06:33:37;;;;;;;28.13;18.50;;;;;;;2.04;100.00;95028.75;5029889;28;20506;-73
2022/11/23 06:36:04;;;;;;;30.73;18.03;;;;;;;1.88;100.00;95012.00;5022141;28;20560;-73
2022/11/23 06:38:36;;;;;;;35.30;18.40;;;;;;;2.03;100.00;95042.84;5029793;28;20955;-73
2022/11/23 06:41:09;;;;;;;35.47;20.73;;;;;;;2.01;100.00;95047.59;5014369;28;20462;-73
2022/11/23 06:43:36;;;;;;;37.23;21.73;;;;;;;1.75;100.00;95009.19;5015717;28;20438;-74
2022/11/23 06:46:07;;;;;;;40.13;19.53;;;;;;;1.94;100.00;95036.84;5035113;28;20960;-76
2022/11/23 06:48:41;;;;;;;30.67;16.90;;;;;;;1.84;100.00;94998.03;5035224;28;20456;-76
2022/11/23 06:51:10;;;;;;;25.50;16.30;;;;;;;1.79;100.00;94988.50;5051353;28;20900;-77
2022/11/23 06:53:36;;;;;;;32.77;20.83;;;;;;;1.68;100.00;94979.44;5017066;28;20437;-76
2022/11/23 06:56:06;;;;;;;34.10;17.83;;;;;;;1.96;100.00;95029.47;5014784;28;20480;-76
2022/11/23 06:58:34;;;;;;;29.10;16.93;;;;;;;2.10;100.00;95050.19;5030779;28;20470;-76
2022/11/23 07:01:05;;;;;;;27.30;17.00;;;;;;;2.08;100.00;95040.84;5031088;28;20470;-76
2022/11/23 07:03:38;;;;;;;25.40;17.83;;;;;;;2.05;100.00;95043.31;5035343;28;20452;-75
2022/11/23 07:06:16;;;;;;;36.70;19.30;;;;;;;1.91;100.00;95017.38;5050341;28;20432;-74
2022/11/23 07:08:42;;;;;;;27.43;16.00;;;;;;;2.06;100.00;95037.78;5041690;28;21015;-74
2022/11/23 07:11:21;;;;;;;27.93;16.63;;;;;;;2.08;100.00;95038.25;5015205;28;20909;-74
2022/11/23 07:13:48;;;;;;;31.47;16.03;;;;;;;1.99;100.00;95037.44;5040207;28;20445;-74
2022/11/23 07:16:14;;;;;;;21.53;15.60;;;;;;;2.16;100.00;95068.03;5033330;28;20484;-74
2022/11/23 07:18:41;;;;;;;27.13;17.50;;;;;;;1.97;100.00;95038.81;5049412;28;20829;-74
2022/11/23 07:21:08;;;;;;;24.80;15.30;;;;;;;1.99;100.00;95047.09;5052272;28;20495;-74
2022/11/23 07:23:39;;;;;;;27.40;14.63;;;;;;;2.19;100.00;95071.84;5053702;28;20468;-74
2022/11/23 07:26:08;;;;;;;25.27;17.00;;;;;;;2.04;100.00;95037.31;5035068;28;20553;-74
2022/11/23 07:28:34;;;;;;;23.03;15.33;;;;;;;2.28;100.00;95070.81;5033644;28;20465;-74
2022/11/23 07:31:01;;;;;;;26.17;16.30;;;;;;;1.94;100.00;95047.25;5033427;28;20476;-74
2022/11/23 07:33:29;;;;;;;24.87;15.27;;;;;;;1.95;100.00;95033.91;5045199;28;20434;-74
2022/11/23 07:35:55;;;;;;;18.97;13.23;;;;;;;1.95;100.00;95046.19;5047587;28;20446;-74
2022/11/23 07:38:22;;;;;;;19.07;12.73;;;;;;;2.31;100.00;95092.91;5028937;28;20460;-74
2022/11/23 07:40:50;;;;;;;22.53;15.07;;;;;;;2.37;100.00;95091.66;5053236;28;20464;-74
2022/11/23 07:43:39;;;;;;;22.60;12.87;;;;;;;2.33;100.00;95091.50;5050545;28;20446;-74
2022/11/23 07:46:06;;;;;;;21.23;14.20;;;;;;;2.09;100.00;95078.09;5032842;28;20504;-74
2022/11/23 07:48:32;;;;;;;24.70;14.27;;;;;;;2.11;100.00;95068.16;5032622;28;20569;-74
2022/11/23 07:51:02;;;;;;;20.33;13.43;;;;;;;2.34;100.00;95110.53;5034351;28;20430;-74
2022/11/23 07:53:29;;;;;;;24.60;15.13;;;;;;;2.12;100.00;95090.53;5046310;28;20513;-74
2022/11/23 07:55:59;;;;;;;22.63;15.27;;;;;;;2.23;100.00;95115.25;5016671;28;20446;-74
2022/11/23 07:58:26;;;;;;;22.93;15.17;;;;;;;1.96;100.00;95076.38;5050588;28;20475;-74
2022/11/23 08:00:52;;;;;;;28.83;18.27;;;;;;;1.93;100.00;95071.78;5022004;28;20911;-74
2022/11/23 08:03:19;;;;;;;25.67;16.83;;;;;;;2.28;100.00;95101.34;5030629;28;20430;-74
2022/11/23 08:05:53;;;;;;;25.77;16.00;;;;;;;2.20;100.00;95102.84;5045186;28;20524;-74
2022/11/23 08:08:20;;;;;;;27.67;16.80;;;;;;;2.17;100.00;95100.06;5052574;28;20805;-74
2022/11/23 08:10:47;;;;;;;24.97;14.37;;;;;;;2.11;100.00;95068.16;5036561;28;20480;-74
2022/11/23 08:13:20;;;;;;;29.40;16.90;;;;;;;2.37;100.00;95100.25;5054381;28;20418;-74
2022/11/23 08:15:47;;;;;;;30.10;17.27;;;;;;;2.25;100.00;95079.22;5052702;28;20457;-74
2022/11/23 08:18:20;;;;;;;24.90;14.50;;;;;;;2.22;100.00;95086.88;5044702;28;20486;-74
2022/11/23 08:20:47;;;;;;;21.77;14.20;;;;;;;2.10;100.00;95077.03;5032754;28;20997;-74
2022/11/23 08:23:13;;;;;;;27.63;16.93;;;;;;;2.10;100.00;95056.19;5042217;28;20429;-74
2022/11/23 08:25:40;;;;;;;24.40;15.83;;;;;;;2.34;100.00;95097.50;5036957;28;20438;-74
2022/11/23 08:28:07;;;;;;;25.90;18.20;;;;;;;2.02;100.00;95057.72;5032554;28;20454;-74
2022/11/23 08:30:34;;;;;;;23.40;17.37;;;;;;;2.19;100.00;95079.69;5033497;28;20462;-74
2022/11/23 08:33:08;;;;;;;34.17;18.60;;;;;;;2.24;100.00;95110.81;5016087;28;20452;-74
2022/11/23 08:35:36;;;;;;;36.50;17.47;;;;;;;2.31;100.00;95104.09;5024652;28;20527;-74
2022/11/23 08:38:04;;;;;;;30.73;17.83;;;;;;;2.30;100.00;95102.56;5033325;28;20472;-74
2022/11/23 08:40:31;;;;;;;23.93;13.87;;;;;;;2.36;100.00;95101.34;5032078;28;20466;-74
2022/11/23 08:42:58;;;;;;;22.23;13.90;;;;;;;2.21;100.00;95082.75;5032153;28;21044;-74
2022/11/23 08:45:24;;;;;;;31.00;14.97;;;;;;;2.17;100.00;95079.97;5035229;28;20531;-75
2022/11/23 08:47:51;;;;;;;31.33;16.43;;;;;;;2.33;100.00;95094.13;5043080;28;20521;-74
2022/11/23 08:50:19;;;;;;;25.83;15.13;;;;;;;2.20;100.00;95055.91;5036492;28;20433;-74
2022/11/23 08:52:45;;;;;;;21.50;14.73;;;;;;;2.27;100.00;95064.06;5051779;28;20444;-74
2022/11/23 08:55:13;;;;;;;22.67;13.60;;;;;;;2.35;100.00;95089.38;5034639;28;20945;-74
2022/11/23 08:57:39;;;;;;;17.63;13.60;;;;;;;2.37;100.00;95086.44;5026210;28;20445;-74
2022/11/23 09:00:07;;;;;;;22.07;15.30;;;;;;;2.34;100.00;95081.84;5048802;28;20472;-74
2022/11/23 09:02:33;;;;;;;18.87;13.37;;;;;;;2.45;100.00;95082.34;5033087;28;20517;-74
2022/11/23 09:05:00;;;;;;;18.37;12.27;;;;;;;2.52;100.00;95085.25;5036690;28;20763;-74
2022/11/23 09:07:26;;;;;;;18.77;13.53;;;;;;;2.70;100.00;95115.53;5040084;28;20529;-74
2022/11/23 09:09:53;;;;;;;23.70;15.00;;;;;;;2.60;100.00;95111.34;5036570;28;20459;-74
2022/11/23 09:12:20;;;;;;;16.57;12.27;;;;;;;2.54;100.00;95106.59;5040206;28;20445;-74
2022/11/23 09:14:46;;;;;;;20.60;12.90;;;;;;;2.81;100.00;95142.84;5031339;28;20540;-74
2022/11/23 09:17:13;;;;;;;21.93;13.10;;;;;;;2.77;100.00;95133.31;5043183;28;20921;-74
2022/11/23 09:19:39;;;;;;;17.77;12.50;;;;;;;2.63;100.00;95136.81;5050630;28;20483;-74
2022/11/23 09:22:06;;;;;;;16.37;11.90;;;;;;;2.60;100.00;95131.47;5023308;28;20441;-74
2022/11/23 09:24:33;;;;;;;17.37;11.50;;;;;;;2.49;100.00;95111.94;5031001;28;20445;-74
2022/11/23 09:27:00;;;;;;;14.53;10.77;;;;;;;2.67;100.00;95137.78;5030937;28;20473;-74
2022/11/23 09:29:27;;;;;;;15.10;11.87;;;;;;;2.80;100.00;95146.50;5014911;28;20465;-74
2022/11/23 09:31:54;;;;;;;19.00;11.50;;;;;;;2.58;100.00;95113.50;5040787;28;20965;-74
2022/11/23 09:34:23;;;;;;;16.50;11.63;;;;;;;2.81;100.00;95147.31;5027650;28;20925;-74
2022/11/23 09:36:49;;;;;;;17.93;11.40;;;;;;;2.86;100.00;95153.13;5038467;28;20437;-74
2022/11/23 09:39:16;;;;;;;16.57;12.07;;;;;;;2.79;100.00;95129.31;5031496;28;20465;-74
2022/11/23 09:41:52;;;;;;;21.87;12.43;;;;;;;2.97;100.00;95157.00;5014468;28;20474;-74
2022/11/23 09:44:40;;;;;;;19.13;10.87;;;;;;;2.83;100.00;95150.38;5018075;28;20445;-74
2022/11/23 09:47:13;;;;;;;18.50;12.17;;;;;;;2.89;100.00;95149.91;5028189;28;20445;-76
2022/11/23 09:49:58;;;;;;;13.47;9.60;;;;;;;2.69;100.00;95150.50;5030828;28;20553;-75
2022/11/23 09:52:24;;;;;;;19.77;12.30;;;;;;;2.56;100.00;95113.03;5018471;28;20458;-75
2022/11/23 09:54:55;;;;;;;19.60;10.53;;;;;;;2.66;100.00;95122.41;5032960;28;20653;-75
2022/11/23 09:57:28;;;;;;;27.03;14.33;;;;;;;2.46;100.00;95095.06;5034365;28;20436;-75
2022/11/23 09:59:54;;;;;;;17.70;12.50;;;;;;;2.80;100.00;95133.47;5034221;28;20462;-75
2022/11/23 10:02:24;;;;;;;15.83;11.20;;;;;;;2.53;100.00;95090.16;5040375;28;20619;-75
2022/11/23 10:04:52;;;;;;;28.37;12.63;;;;;;;2.63;100.00;95130.84;5051666;28;20433;-75
2022/11/23 10:07:28;;;;;;;23.47;14.33;;;;;;;2.74;100.00;95121.66;5040563;28;20472;-75
2022/11/23 10:10:10;;;;;;;18.63;12.30;;;;;;;2.78;100.00;95121.81;5030401;28;20466;-75
2022/11/23 10:12:54;;;;;;;23.20;13.63;;;;;;;2.93;100.00;95123.97;5031507;28;20422;-75
2022/11/23 10:15:27;;;;;;;17.80;12.90;;;;;;;2.67;100.00;95096.03;5030709;28;20461;-75
2022/11/23 10:18:11;;;;;;;20.57;12.10;;;;;;;2.81;100.00;95124.59;5033747;28;20524;-75
2022/11/23 10:20:56;;;;;;;18.40;12.77;;;;;;;2.80;100.00;95127.47;5050228;28;20886;-75
2022/11/23 10:23:50;;;;;;;19.57;14.63;;;;;;;2.90;100.00;95127.19;5050080;28;20532;-75
2022/11/23 10:26:20;;;;;;;20.03;12.90;;;;;;;2.78;100.00;95116.59;5030793;28;20942;-75
2022/11/23 10:28:48;;;;;;;20.63;13.40;;;;;;;2.85;100.00;95117.69;5030042;28;20996;-75
2022/11/23 10:31:16;;;;;;;26.03;15.93;;;;;;;2.80;100.00;95117.81;5039887;28;20430;-76
2022/11/23 10:33:43;;;;;;;22.13;14.67;;;;;;;2.88;100.00;95118.91;5023950;28;20957;-75
2022/11/23 10:36:12;;;;;;;23.77;14.50;;;;;;;2.77;100.00;95096.78;5038754;28;20529;-75
2022/11/23 10:38:40;;;;;;;20.17;14.50;;;;;;;2.77;100.00;95100.16;5030989;28;20443;-75
2022/11/23 10:41:06;;;;;;;20.90;12.93;;;;;;;3.00;100.00;95116.44;5039054;28;20461;-75
2022/11/23 10:43:36;;;;;;;20.03;14.30;;;;;;;3.15;100.00;95102.16;5049707;28;20441;-75
2022/11/23 10:46:23;;;;;;;26.03;13.60;;;;;;;3.11;100.00;95109.84;5049567;28;20468;-76
2022/11/23 10:48:51;;;;;;;23.00;12.47;;;;;;;3.00;100.00;95092.97;5031765;28;20449;-75
2022/11/23 10:51:31;;;;;;;17.60;12.97;;;;;;;3.21;100.00;95116.59;5031024;28;20433;-75
2022/11/23 10:54:05;;;;;;;22.97;13.00;;;;;;;3.18;100.00;95109.38;5030963;28;21017;-75
2022/11/23 10:56:33;;;;;;;23.93;12.67;;;;;;;3.06;100.00;95083.88;5034252;28;20495;-75
2022/11/23 10:58:59;;;;;;;18.00;12.50;;;;;;;3.38;100.00;95105.38;5053504;28;20457;-75
2022/11/23 11:01:28;;;;;;;22.50;12.10;;;;;;;3.35;100.00;95103.38;5053577;28;20467;-76
2022/11/23 11:04:02;;;;;;;21.13;13.40;;;;;;;3.18;100.00;95084.03;5053615;28;20449;-75
2022/11/23 11:06:33;;;;;;;20.57;13.20;;;;;;;3.11;100.00;95077.75;5037955;28;20414;-75
2022/11/23 11:09:16;;;;;;;18.37;13.80;;;;;;;3.38;100.00;95106.13;5027498;28;20453;-75
2022/11/23 11:11:51;;;;;;;20.80;13.00;;;;;;;3.52;100.00;95104.09;5025276;28;20870;-76
2022/11/23 11:14:22;;;;;;;13.77;10.87;;;;;;;3.61;100.00;95101.47;5027375;28;20472;-75
2022/11/23 11:16:54;;;;;;;16.73;10.93;;;;;;;3.54;100.00;95104.56;5017635;28;20457;-75
2022/11/23 11:19:31;;;;;;;18.10;11.50;;;;;;;3.51;100.00;95118.25;5016627;28;20983;-75
2022/11/23 11:22:00;;;;;;;16.43;11.20;;;;;;;3.50;100.00;95095.81;5043433;28;20461;-75
2022/11/23 11:24:34;;;;;;;14.83;10.47;;;;;;;3.58;100.00;95112.53;5046986;28;20914;-75
2022/11/23 11:27:05;;;;;;;18.50;12.80;;;;;;;3.61;100.00;95111.94;5034497;28;20406;-75
2022/11/23 11:29:43;;;;;;;16.27;10.03;;;;;;;3.66;100.00;95113.59;5033047;28;20450;-75